createdAt,value
2023-01-08T00:01:59.894Z,72
2023-01-08T00:04:29.693Z,72
2023-01-08T00:06:59.635Z,75
2023-01-08T00:09:29.547Z,71
2023-01-08T00:11:59.445Z,76
2023-01-08T00:14:29.288Z,69
2023-01-08T00:16:59.156Z,69
2023-01-08T00:19:29.223Z,74
2023-01-08T00:21:59.054Z,73
2023-01-08T00:24:29.050Z,71
2023-01-08T00:27:02.399Z,67
2023-01-08T00:29:32.406Z,68
2023-01-08T00:32:02.295Z,70
2023-01-08T00:34:32.391Z,67
2023-01-08T00:37:02.113Z,68
2023-01-08T00:39:32.090Z,64
2023-01-08T00:42:12.621Z,68
2023-01-08T00:47:29.759Z,72
2023-01-08T00:50:07.454Z,72
2023-01-08T00:52:44.304Z,79
2023-01-08T00:55:14.179Z,83
2023-01-08T00:57:43.758Z,87
2023-01-08T01:00:14.087Z,87
2023-01-08T01:02:43.668Z,84
2023-01-08T01:05:13.710Z,78
2023-01-08T01:07:43.316Z,83
2023-01-08T01:10:13.536Z,75
2023-01-08T01:12:43.446Z,72
2023-01-08T01:15:13.453Z,76
2023-01-08T01:17:43.194Z,76
2023-01-08T01:20:12.912Z,81
2023-01-08T01:22:42.953Z,79
2023-01-08T01:25:12.826Z,78
2023-01-08T01:27:42.529Z,76
2023-01-08T01:30:12.592Z,76
2023-01-08T01:32:42.474Z,80
2023-01-08T01:35:12.254Z,83
2023-01-08T01:37:42.111Z,80
2023-01-08T01:40:12.115Z,74
2023-01-08T01:42:42.044Z,72
2023-01-08T01:45:11.863Z,71
2023-01-08T01:47:41.525Z,71
2023-01-08T01:50:11.506Z,67
2023-01-08T01:52:41.460Z,69
2023-01-08T01:55:11.265Z,70
2023-01-08T01:57:41.335Z,76
2023-01-08T02:00:11.235Z,72
2023-01-08T02:02:40.975Z,72
2023-01-08T02:05:10.930Z,71
2023-01-08T02:07:41.973Z,67
2023-01-08T02:10:11.971Z,68
2023-01-08T02:12:41.027Z,68
2023-01-08T02:15:10.307Z,68
2023-01-08T02:17:39.711Z,65
2023-01-08T02:20:09.634Z,68
2023-01-08T02:22:39.688Z,68
2023-01-08T02:25:09.618Z,70
2023-01-08T02:27:39.581Z,65
2023-01-08T02:30:09.557Z,64
2023-01-08T02:32:39.684Z,73
2023-01-08T02:35:09.542Z,69
2023-01-08T02:37:39.494Z,69
2023-01-08T02:40:09.378Z,68
2023-01-08T02:42:39.291Z,74
2023-01-08T02:45:09.185Z,73
2023-01-08T02:47:39.000Z,70
2023-01-08T02:50:09.161Z,75
2023-01-08T02:52:38.889Z,73
2023-01-08T02:55:08.784Z,79
2023-01-08T02:57:38.606Z,72
2023-01-08T03:00:08.432Z,69
2023-01-08T03:02:38.295Z,68
2023-01-08T03:05:08.252Z,64
2023-01-08T03:07:38.284Z,68
2023-01-08T03:10:08.101Z,72
2023-01-08T03:12:38.025Z,68
2023-01-08T03:15:07.955Z,68
2023-01-08T03:17:37.962Z,64
2023-01-08T03:20:08.003Z,68
2023-01-08T03:22:37.887Z,68
2023-01-08T03:25:07.953Z,63
2023-01-08T03:27:37.769Z,65
2023-01-08T03:30:07.653Z,65
2023-01-08T03:32:37.485Z,66
2023-01-08T03:35:07.468Z,70
2023-01-08T03:37:37.431Z,72
2023-01-08T03:40:07.333Z,70
2023-01-08T03:42:37.393Z,72
2023-01-08T03:45:07.102Z,64
2023-01-08T03:47:37.039Z,64
2023-01-08T03:50:07.017Z,71
2023-01-08T03:52:36.827Z,69
2023-01-08T03:55:06.815Z,72
2023-01-08T03:57:36.805Z,65
2023-01-08T04:00:06.906Z,71
2023-01-08T04:02:36.694Z,68
2023-01-08T04:05:06.611Z,74
2023-01-08T04:07:36.541Z,68
2023-01-08T04:10:06.449Z,68
2023-01-08T04:12:36.520Z,68
2023-01-08T04:15:06.433Z,68
2023-01-08T04:17:36.440Z,68
2023-01-08T04:20:06.252Z,69
2023-01-08T04:22:36.244Z,70
2023-01-08T04:25:06.183Z,69
2023-01-08T04:27:35.820Z,70
2023-01-08T04:30:05.677Z,76
2023-01-08T04:32:35.295Z,70
2023-01-08T04:35:05.271Z,71
2023-01-08T04:37:35.136Z,68
2023-01-08T04:40:04.999Z,71
2023-01-08T04:42:34.960Z,69
2023-01-08T04:45:04.923Z,75
2023-01-08T04:47:34.884Z,84
2023-01-08T04:50:04.693Z,84
2023-01-08T04:52:34.638Z,88
2023-01-08T04:55:04.422Z,78
2023-01-08T04:57:34.329Z,76
2023-01-08T05:00:04.188Z,78
2023-01-08T05:02:34.393Z,80
2023-01-08T05:05:04.076Z,75
2023-01-08T05:07:34.021Z,80
2023-01-08T05:10:03.829Z,76
2023-01-08T05:12:33.889Z,80
2023-01-08T05:15:03.770Z,76
2023-01-08T05:17:33.658Z,81
2023-01-08T05:20:03.353Z,78
2023-01-08T05:22:33.249Z,73
2023-01-08T05:25:03.165Z,76
2023-01-08T05:27:33.283Z,79
2023-01-08T05:30:03.220Z,80
2023-01-08T05:32:33.150Z,84
2023-01-08T05:35:02.956Z,80
2023-01-08T05:37:32.864Z,78
2023-01-08T05:40:02.717Z,80
2023-01-08T05:42:32.706Z,82
2023-01-08T05:45:02.746Z,80
2023-01-08T05:47:32.648Z,76
2023-01-08T05:50:02.623Z,74
2023-01-08T05:52:32.403Z,77
2023-01-08T05:55:02.309Z,76
2023-01-08T05:57:35.765Z,80
2023-01-08T06:00:05.867Z,89
2023-01-08T06:02:35.827Z,78
2023-01-08T06:05:05.610Z,80
2023-01-08T06:07:35.521Z,80
2023-01-08T06:10:05.481Z,80
2023-01-08T06:12:35.316Z,81
2023-01-08T06:15:05.208Z,80
2023-01-08T06:17:35.358Z,82
2023-01-08T06:20:05.178Z,84
2023-01-08T06:22:35.149Z,80
2023-01-08T06:25:05.021Z,79
2023-01-08T06:27:34.809Z,80
2023-01-08T06:30:04.703Z,78
2023-01-08T06:32:34.531Z,85
2023-01-08T06:35:04.536Z,84
2023-01-08T06:37:34.444Z,80
2023-01-08T06:40:04.427Z,87
2023-01-08T06:42:34.443Z,80
2023-01-08T06:45:04.254Z,80
2023-01-08T06:47:34.261Z,84
2023-01-08T06:50:03.984Z,80
2023-01-08T06:52:34.177Z,81
2023-01-08T06:55:03.929Z,82
2023-01-08T06:57:33.794Z,86
2023-01-08T07:00:04.449Z,84
2023-01-08T07:02:34.422Z,84
2023-01-08T07:05:03.988Z,83
2023-01-08T07:07:33.690Z,82
2023-01-08T07:10:03.817Z,86
2023-01-08T07:12:33.773Z,84
2023-01-08T07:15:03.776Z,84
2023-01-08T07:17:33.493Z,85
2023-01-08T07:20:03.378Z,88
2023-01-08T07:22:33.234Z,88
2023-01-08T07:25:02.724Z,86
2023-01-08T07:27:32.634Z,92
2023-01-08T07:30:02.307Z,87
2023-01-08T07:32:32.255Z,92
2023-01-08T07:35:02.252Z,85
2023-01-08T07:37:32.228Z,89
2023-01-08T07:40:02.069Z,87
2023-01-08T07:42:32.059Z,92
2023-01-08T07:45:02.135Z,96
2023-01-08T07:47:31.912Z,101
2023-01-08T07:50:01.833Z,98
2023-01-08T07:52:31.703Z,97
2023-01-08T07:55:01.556Z,98
2023-01-08T07:57:31.562Z,103
2023-01-08T08:00:01.397Z,104
2023-01-08T08:02:31.605Z,88
2023-01-08T08:05:01.257Z,92
2023-01-08T08:07:31.301Z,90
2023-01-08T08:10:01.261Z,87
2023-01-08T08:12:31.530Z,95
2023-01-08T08:15:01.472Z,92
2023-01-08T08:17:31.451Z,92
2023-01-08T08:20:01.544Z,92
2023-01-08T08:22:31.059Z,102
2023-01-08T08:25:00.453Z,98
2023-01-08T08:27:32.660Z,96
2023-01-08T08:30:02.617Z,104
2023-01-08T08:32:32.524Z,101
2023-01-08T08:35:02.123Z,108
2023-01-08T08:37:32.209Z,99
2023-01-08T08:40:02.187Z,104
2023-01-08T08:42:37.720Z,102
2023-01-08T08:45:07.035Z,99
2023-01-08T08:47:37.012Z,102
2023-01-08T08:50:07.419Z,111
2023-01-08T08:52:37.951Z,96
2023-01-08T08:55:07.657Z,96
2023-01-08T08:57:37.320Z,98
2023-01-08T09:00:08.570Z,104
2023-01-08T09:02:38.741Z,99
2023-01-08T09:05:08.625Z,94
2023-01-08T09:07:38.691Z,95
2023-01-08T09:10:08.572Z,90
2023-01-08T09:12:39.121Z,84
2023-01-08T09:15:09.073Z,91
2023-01-08T09:17:39.588Z,88
2023-01-08T09:20:09.410Z,86
2023-01-08T09:22:39.330Z,91
2023-01-08T09:25:09.400Z,89
2023-01-08T09:27:39.958Z,88
2023-01-08T09:30:10.595Z,86
2023-01-08T09:32:40.563Z,86
2023-01-08T09:35:10.639Z,86
2023-01-08T09:37:40.668Z,82
2023-01-08T09:40:10.827Z,93
2023-01-08T09:42:40.843Z,89
2023-01-08T09:45:11.024Z,83
2023-01-08T09:47:40.860Z,86
2023-01-08T09:50:11.498Z,84
2023-01-08T09:52:43.600Z,76
2023-01-08T09:55:13.267Z,79
2023-01-08T09:57:43.125Z,88
2023-01-08T10:00:13.955Z,76
2023-01-08T10:02:43.974Z,77
2023-01-08T10:05:16.867Z,79
2023-01-08T10:07:47.042Z,64
2023-01-08T10:10:17.608Z,72
2023-01-08T10:12:50.478Z,73
2023-01-08T10:20:47.938Z,56
2023-01-08T10:23:22.217Z,52
2023-01-08T10:25:53.889Z,60
2023-01-08T10:28:23.883Z,52
2023-01-08T10:30:53.907Z,46
2023-01-08T10:33:23.910Z,46
2023-01-08T10:35:54.787Z,45
2023-01-08T10:38:24.546Z,56
2023-01-08T10:40:54.508Z,44
2023-01-08T10:43:40.282Z,49
2023-01-08T10:46:16.853Z,56
2023-01-08T10:48:56.771Z,52
2023-01-08T10:51:26.719Z,52
2023-01-08T10:53:56.743Z,40
2023-01-08T10:56:27.274Z,44
2023-01-08T10:58:57.922Z,44
2023-01-08T11:01:27.891Z,40
2023-01-08T11:03:57.894Z,40
2023-01-08T11:06:27.948Z,42
2023-01-08T11:08:58.641Z,41
2023-01-08T11:11:28.603Z,36
2023-01-08T11:13:59.304Z,37
2023-01-08T11:16:29.349Z,40
2023-01-08T11:18:59.326Z,36
2023-01-08T11:21:29.407Z,40
2023-01-08T11:24:00.044Z,36
2023-01-08T11:26:30.691Z,44
2023-01-08T11:29:00.704Z,36
2023-01-08T11:31:31.308Z,36
2023-01-08T11:34:01.155Z,36
2023-01-08T11:36:31.851Z,34
2023-01-08T11:39:01.806Z,36
2023-01-08T11:41:32.520Z,36
2023-01-08T11:44:02.533Z,32
2023-01-08T11:46:33.224Z,32
2023-01-08T11:49:03.094Z,32
2023-01-08T11:51:33.071Z,35
2023-01-08T11:54:03.196Z,32
2023-01-08T11:56:33.913Z,32
2023-01-08T11:59:03.930Z,32
2023-01-08T12:01:34.019Z,32
2023-01-08T12:04:04.557Z,36
2023-01-08T12:06:36.855Z,32
2023-01-08T12:09:04.682Z,34
2023-01-08T12:11:34.718Z,32
2023-01-08T12:14:04.730Z,32
2023-01-08T12:16:35.208Z,28
2023-01-08T12:19:05.151Z,31
2023-01-08T12:21:35.173Z,32
2023-01-08T12:24:05.887Z,28
2023-01-08T12:26:36.545Z,28
2023-01-08T12:29:06.030Z,28
2023-01-08T12:31:36.118Z,24
2023-01-08T12:34:06.126Z,24
2023-01-08T12:36:36.686Z,24
2023-01-08T12:39:06.457Z,24
2023-01-08T12:41:36.295Z,22
2023-01-08T12:44:06.734Z,20
2023-01-08T12:46:36.696Z,24
2023-01-08T12:49:06.628Z,24
2023-01-08T12:51:36.564Z,24
2023-01-08T12:54:06.604Z,24
2023-01-08T12:56:36.464Z,24
2023-01-08T12:59:06.495Z,28
2023-01-08T13:01:36.867Z,24
2023-01-08T13:04:07.172Z,24
2023-01-08T13:06:37.152Z,32
2023-01-08T13:09:07.257Z,32
2023-01-08T13:11:37.903Z,36
2023-01-08T13:14:07.987Z,32
2023-01-08T13:16:38.537Z,32
2023-01-08T13:19:08.424Z,28
2023-01-08T13:21:39.120Z,28
2023-01-08T13:24:09.612Z,28
2023-01-08T13:26:39.265Z,24
2023-01-08T13:29:10.480Z,24
2023-01-08T13:31:40.368Z,28
2023-01-08T13:34:10.754Z,28
2023-01-08T13:36:40.859Z,32
2023-01-08T13:39:10.864Z,29
2023-01-08T13:41:40.904Z,32
2023-01-08T13:44:10.983Z,32
2023-01-08T13:46:41.610Z,28
2023-01-08T13:49:11.541Z,28
2023-01-08T13:51:41.589Z,32
2023-01-08T13:54:11.458Z,31
2023-01-08T13:56:41.403Z,32
2023-01-08T13:59:11.399Z,34
2023-01-08T14:01:41.342Z,34
2023-01-08T14:04:14.805Z,35
2023-01-08T14:06:44.897Z,32
2023-01-08T14:09:14.670Z,35
2023-01-08T14:11:44.660Z,36
2023-01-08T14:14:16.086Z,36
2023-01-08T14:16:46.078Z,42
2023-01-08T14:19:15.987Z,36
2023-01-08T14:21:46.084Z,36
2023-01-08T14:24:15.970Z,36
2023-01-08T14:26:46.645Z,36
2023-01-08T14:29:17.347Z,36
2023-01-08T14:31:47.392Z,36
2023-01-08T14:34:17.375Z,36
2023-01-08T14:36:47.372Z,32
2023-01-08T14:39:17.368Z,32
2023-01-08T14:41:47.295Z,36
2023-01-08T14:44:19.088Z,36
2023-01-08T14:46:47.200Z,36
2023-01-08T14:49:17.717Z,36
2023-01-08T14:51:47.743Z,36
2023-01-08T14:54:18.535Z,36
2023-01-08T14:56:49.254Z,39
2023-01-08T14:59:19.150Z,39
2023-01-08T15:01:49.239Z,44
2023-01-08T15:04:19.799Z,44
2023-01-08T15:06:49.885Z,38
2023-01-08T15:09:20.427Z,37
2023-01-08T15:11:50.459Z,44
2023-01-08T15:14:20.572Z,42
2023-01-08T15:16:50.583Z,44
2023-01-08T15:19:21.175Z,41
2023-01-08T15:21:51.135Z,48
2023-01-08T15:24:21.135Z,39
2023-01-08T15:26:51.272Z,39
2023-01-08T15:29:21.265Z,36
2023-01-08T15:31:51.266Z,40
2023-01-08T15:34:21.203Z,56
2023-01-08T15:36:51.854Z,50
2023-01-08T15:39:21.796Z,52
2023-01-08T15:41:51.822Z,60
2023-01-08T15:44:21.550Z,61
2023-01-08T15:46:51.304Z,47
2023-01-08T15:49:21.183Z,49
2023-01-08T15:51:50.993Z,40
2023-01-08T15:54:21.113Z,44
2023-01-08T15:56:51.030Z,47
2023-01-08T15:59:21.715Z,48
2023-01-08T16:01:51.642Z,42
2023-01-08T16:04:21.572Z,40
2023-01-08T16:06:51.905Z,40
2023-01-08T16:09:21.762Z,36
2023-01-08T16:11:52.331Z,40
2023-01-08T16:14:22.263Z,40
2023-01-08T16:16:52.093Z,40
2023-01-08T16:19:24.958Z,40
2023-01-08T16:21:52.846Z,45
2023-01-08T16:24:23.570Z,40
2023-01-08T16:26:53.528Z,40
2023-01-08T16:29:23.541Z,48
2023-01-08T16:31:53.550Z,42
2023-01-08T16:34:23.394Z,46
2023-01-08T16:36:53.455Z,44
2023-01-08T16:39:23.386Z,42
2023-01-08T16:41:54.062Z,44
2023-01-08T16:44:26.255Z,43
2023-01-08T16:46:54.749Z,48
2023-01-08T16:49:24.755Z,51
2023-01-08T16:51:54.770Z,49
2023-01-08T16:54:24.830Z,44
2023-01-08T16:56:54.847Z,50
2023-01-08T16:59:25.482Z,44
2023-01-08T17:01:55.204Z,42
2023-01-08T17:04:25.309Z,46
2023-01-08T17:06:55.213Z,44
2023-01-08T17:09:25.194Z,44
2023-01-08T17:11:55.173Z,48
2023-01-08T17:14:24.943Z,48
2023-01-08T17:16:55.528Z,44
2023-01-08T17:19:26.103Z,44
2023-01-08T17:21:55.935Z,53
2023-01-08T17:24:26.552Z,48
2023-01-08T17:26:56.380Z,46
2023-01-08T17:29:26.273Z,41
2023-01-08T17:31:56.238Z,50
2023-01-08T17:34:26.085Z,45
2023-01-08T17:36:55.826Z,47
2023-01-08T17:39:25.532Z,40
2023-01-08T17:41:57.128Z,44
2023-01-08T17:44:27.714Z,41
2023-01-08T17:46:57.683Z,50
2023-01-08T17:49:27.765Z,37
2023-01-08T17:51:57.757Z,42
2023-01-08T17:54:28.346Z,37
2023-01-08T17:56:58.257Z,40
2023-01-08T17:59:28.256Z,40
2023-01-08T18:01:58.377Z,36
2023-01-08T18:04:28.225Z,40
2023-01-08T18:06:58.822Z,36
2023-01-08T18:09:29.393Z,38
2023-01-08T18:11:59.363Z,42
2023-01-08T18:14:29.354Z,40
2023-01-08T18:16:59.876Z,44
2023-01-08T18:19:29.815Z,40
2023-01-08T18:22:00.498Z,40
2023-01-08T18:24:30.549Z,40
2023-01-08T18:27:00.624Z,40
2023-01-08T18:29:30.310Z,40
2023-01-08T18:32:01.118Z,37
2023-01-08T18:34:31.225Z,40
2023-01-08T18:37:01.211Z,44
2023-01-08T18:39:31.739Z,44
2023-01-08T18:42:01.113Z,40
2023-01-08T18:44:31.500Z,40
2023-01-08T18:47:01.335Z,40
2023-01-08T18:49:32.099Z,40
2023-01-08T18:52:02.607Z,50
2023-01-08T18:54:34.424Z,40
2023-01-08T18:57:03.263Z,40
2023-01-08T18:59:33.262Z,40
2023-01-08T19:02:03.985Z,40
2023-01-08T19:04:33.913Z,37
2023-01-08T19:07:04.490Z,40
2023-01-08T19:09:34.778Z,40
2023-01-08T19:12:05.518Z,36
2023-01-08T19:14:35.481Z,40
2023-01-08T19:17:05.502Z,40
2023-01-08T19:19:35.542Z,40
2023-01-08T19:22:05.571Z,47
2023-01-08T19:24:35.685Z,48
2023-01-08T19:27:05.778Z,44
2023-01-08T19:29:35.684Z,44
2023-01-08T19:32:06.319Z,43
2023-01-08T19:34:36.237Z,44
2023-01-08T19:37:06.309Z,40
2023-01-08T19:39:36.112Z,40
2023-01-08T19:42:06.002Z,43
2023-01-08T19:44:36.085Z,42
2023-01-08T19:47:06.068Z,42
2023-01-08T19:49:36.096Z,40
2023-01-08T19:52:06.095Z,40
2023-01-08T19:54:36.189Z,40
2023-01-08T19:57:06.035Z,36
2023-01-08T19:59:36.025Z,40
2023-01-08T20:02:06.181Z,36
2023-01-08T20:04:35.994Z,40
2023-01-08T20:07:06.131Z,40
2023-01-08T20:09:36.016Z,39
2023-01-08T20:12:06.048Z,40
2023-01-08T20:14:36.044Z,36
2023-01-08T20:17:06.739Z,40
2023-01-08T20:19:36.611Z,37
2023-01-08T20:22:07.275Z,36
2023-01-08T20:24:37.267Z,36
2023-01-08T20:27:07.272Z,39
2023-01-08T20:29:41.142Z,36
2023-01-08T20:32:15.519Z,36
2023-01-08T20:34:45.641Z,36
2023-01-08T20:37:15.442Z,32
2023-01-08T20:39:46.180Z,36
2023-01-08T20:42:17.748Z,35
2023-01-08T20:44:46.087Z,36
2023-01-08T20:47:16.158Z,36
2023-01-08T20:49:46.028Z,36
2023-01-08T20:52:15.958Z,36
2023-01-08T20:54:46.673Z,36
2023-01-08T20:57:16.687Z,33
2023-01-08T20:59:46.649Z,36
2023-01-08T21:02:16.793Z,36
2023-01-08T21:04:46.758Z,36
2023-01-08T21:07:16.741Z,36
2023-01-08T21:09:46.742Z,35
2023-01-08T21:12:16.435Z,32
2023-01-08T21:14:46.500Z,34
2023-01-08T21:17:16.525Z,33
2023-01-08T21:19:46.521Z,36
2023-01-08T21:22:17.146Z,32
2023-01-08T21:24:47.131Z,32
2023-01-08T21:27:17.131Z,33
2023-01-08T21:29:47.189Z,32
2023-01-08T21:32:17.201Z,32
2023-01-08T21:34:47.135Z,32
2023-01-08T21:37:17.806Z,32
2023-01-08T21:39:47.806Z,32
2023-01-08T21:42:17.781Z,36
2023-01-08T21:44:48.455Z,34
2023-01-08T21:47:18.340Z,32
2023-01-08T21:49:48.967Z,32
2023-01-08T21:52:18.943Z,34
2023-01-08T21:54:49.047Z,32
2023-01-08T21:57:19.659Z,36
2023-01-08T21:59:49.418Z,36
2023-01-08T22:02:19.873Z,32
2023-01-08T22:04:49.719Z,32
2023-01-08T22:07:19.798Z,32
2023-01-08T22:09:49.698Z,32
2023-01-08T22:12:19.604Z,34
2023-01-08T22:14:49.590Z,33
2023-01-08T22:17:20.239Z,35
2023-01-08T22:19:50.227Z,32
2023-01-08T22:22:20.312Z,33
2023-01-08T22:24:50.350Z,32
2023-01-08T22:27:21.009Z,32
2023-01-08T22:29:50.852Z,32
2023-01-08T22:32:20.908Z,32
2023-01-08T22:34:50.793Z,35
2023-01-08T22:37:20.755Z,32
2023-01-08T22:39:50.849Z,32
2023-01-08T22:42:20.896Z,32
2023-01-08T22:44:50.782Z,33
2023-01-08T22:47:20.624Z,32
2023-01-08T22:49:50.461Z,32
2023-01-08T22:52:21.077Z,32
2023-01-08T22:54:53.036Z,32
2023-01-08T22:57:23.548Z,32
2023-01-08T22:59:53.433Z,32
2023-01-08T23:02:24.054Z,32
2023-01-08T23:04:53.822Z,32
2023-01-08T23:07:23.963Z,32
2023-01-08T23:09:53.985Z,32
2023-01-08T23:12:23.912Z,32
2023-01-08T23:14:53.993Z,32
2023-01-08T23:17:23.962Z,28
2023-01-08T23:19:53.903Z,32
2023-01-08T23:22:23.852Z,32
2023-01-08T23:24:54.009Z,32
2023-01-08T23:27:23.888Z,32
2023-01-08T23:29:53.964Z,32
2023-01-08T23:32:23.972Z,32
2023-01-08T23:34:54.089Z,32
2023-01-08T23:37:23.842Z,32
2023-01-08T23:39:53.855Z,28
2023-01-08T23:42:23.822Z,32
2023-01-08T23:44:53.869Z,32
2023-01-08T23:47:23.962Z,28
2023-01-08T23:49:53.956Z,32
2023-01-08T23:52:23.869Z,32
2023-01-08T23:54:53.886Z,32
2023-01-08T23:57:23.917Z,28
2023-01-08T23:59:54.016Z,32
